createdAt,value
2023-05-19T00:00:51.505Z,97907.20
2023-05-19T00:04:41.987Z,97902.60
2023-05-19T00:08:31.151Z,97905.00
2023-05-19T00:12:20.671Z,97903.60
2023-05-19T00:16:10.253Z,97910.00
2023-05-19T00:19:59.625Z,97905.60
2023-05-19T00:23:48.834Z,97901.80
2023-05-19T00:27:38.093Z,97907.20
2023-05-19T00:31:27.200Z,97910.00
2023-05-19T00:35:09.716Z,97908.00
2023-05-19T00:38:59.127Z,97910.00
2023-05-19T00:42:48.152Z,97908.40
2023-05-19T00:46:32.237Z,97905.40
2023-05-19T00:50:21.477Z,97904.80
2023-05-19T00:54:10.640Z,97910.20
2023-05-19T00:57:59.676Z,97913.40
2023-05-19T01:01:48.793Z,97923.20
2023-05-19T01:05:38.025Z,97921.60
2023-05-19T01:09:27.092Z,97921.80
2023-05-19T01:13:15.172Z,97921.40
2023-05-19T01:17:04.341Z,97926.80
2023-05-19T01:20:58.096Z,97930.60
2023-05-19T01:24:51.682Z,97925.40
2023-05-19T01:28:39.310Z,97929.40
2023-05-19T01:32:28.602Z,97923.40
2023-05-19T01:36:17.545Z,97933.60
2023-05-19T01:40:06.481Z,97931.20
2023-05-19T01:43:58.313Z,97936.20
2023-05-19T01:47:47.535Z,97932.60
2023-05-19T01:51:36.878Z,97936.00
2023-05-19T01:55:25.918Z,97931.60
2023-05-19T01:59:26.100Z,97930.00
2023-05-19T02:03:39.860Z,97928.20
2023-05-19T02:07:29.023Z,97927.00
2023-05-19T02:11:26.927Z,97923.60
2023-05-19T02:15:15.978Z,97922.80
2023-05-19T02:19:05.423Z,97921.20
2023-05-19T02:22:54.477Z,97926.00
2023-05-19T02:26:43.420Z,97922.20
2023-05-19T02:30:32.746Z,97930.20
2023-05-19T02:34:22.340Z,97938.80
2023-05-19T02:38:11.613Z,97943.60
2023-05-19T02:42:00.766Z,97945.20
2023-05-19T02:45:42.535Z,97947.40
2023-05-19T02:49:31.616Z,97952.60
2023-05-19T02:53:20.623Z,97960.80
2023-05-19T02:57:11.680Z,97964.40
2023-05-19T03:01:00.780Z,97953.00
2023-05-19T03:04:49.911Z,97948.40
2023-05-19T03:08:40.761Z,97951.00
2023-05-19T03:12:31.389Z,97951.60
2023-05-19T03:16:13.920Z,97957.20
2023-05-19T03:19:56.685Z,97961.20
2023-05-19T03:23:45.793Z,97961.60
2023-05-19T03:27:33.761Z,97962.00
2023-05-19T03:31:22.783Z,97958.80
2023-05-19T03:35:11.974Z,97967.00
2023-05-19T03:39:01.037Z,97970.60
2023-05-19T03:42:50.061Z,97972.40
2023-05-19T03:46:39.111Z,97975.80
2023-05-19T03:50:31.346Z,97981.40
2023-05-19T03:54:20.932Z,97980.20
2023-05-19T03:58:10.144Z,97977.60
2023-05-19T04:01:59.099Z,97973.20
2023-05-19T04:05:48.155Z,97971.60
2023-05-19T04:09:37.329Z,97972.00
2023-05-19T04:13:26.657Z,97967.20
2023-05-19T04:17:16.011Z,97969.20
2023-05-19T04:21:05.407Z,97977.40
2023-05-19T04:24:54.440Z,97986.80
2023-05-19T04:28:43.424Z,97992.20
2023-05-19T04:32:32.540Z,97989.00
2023-05-19T04:36:21.817Z,97983.60
2023-05-19T04:40:10.797Z,97985.60
2023-05-19T04:44:00.094Z,97982.60
2023-05-19T04:47:49.495Z,97983.40
2023-05-19T04:51:38.676Z,97983.40
2023-05-19T04:55:27.943Z,97984.80
2023-05-19T04:59:16.997Z,97986.20
2023-05-19T05:03:06.318Z,97989.40
2023-05-19T05:06:55.552Z,97988.60
2023-05-19T05:10:44.789Z,97994.60
2023-05-19T05:14:34.834Z,97998.00
2023-05-19T05:18:24.260Z,97991.80
2023-05-19T05:22:13.650Z,97998.00
2023-05-19T05:26:02.421Z,98006.00
2023-05-19T05:28:53.641Z,98010.40
2023-05-19T05:32:46.220Z,98007.40
2023-05-19T05:36:36.145Z,98007.00
2023-05-19T05:40:25.437Z,98014.60
2023-05-19T05:44:16.379Z,98014.40
2023-05-19T05:48:05.656Z,98019.40
2023-05-19T05:55:51.329Z,98016.40
2023-05-19T05:59:40.368Z,98012.20
2023-05-19T06:03:29.425Z,98011.60
2023-05-19T06:07:18.720Z,98012.80
2023-05-19T06:11:08.089Z,98024.00
2023-05-19T06:14:57.132Z,98023.40
2023-05-19T06:18:53.047Z,98020.60
2023-05-19T06:22:42.111Z,98018.20
2023-05-19T06:26:31.230Z,98026.60
2023-05-19T06:30:20.355Z,98018.40
2023-05-19T06:34:09.457Z,98024.80
2023-05-19T06:37:58.700Z,98028.60
2023-05-19T06:41:47.835Z,98029.40
2023-05-19T06:45:36.874Z,98025.80
2023-05-19T06:49:25.943Z,98025.00
2023-05-19T06:53:02.086Z,98025.60
2023-05-19T06:56:36.636Z,98024.20
2023-05-19T07:00:18.712Z,98030.80
2023-05-19T07:03:51.368Z,98032.20
2023-05-19T07:07:40.451Z,98032.40
2023-05-19T07:11:12.843Z,98032.40
2023-05-19T07:14:54.637Z,98040.20
2023-05-19T07:18:43.987Z,98036.00
2023-05-19T07:22:33.132Z,98037.80
2023-05-19T07:26:22.401Z,98028.40
2023-05-19T07:30:10.921Z,98027.00
2023-05-19T07:34:00.150Z,98029.20
2023-05-19T07:37:49.120Z,98029.60
2023-05-19T07:41:38.048Z,98031.00
2023-05-19T07:45:27.174Z,98021.00
2023-05-19T07:49:15.986Z,98023.00
2023-05-19T07:52:52.486Z,98028.60
2023-05-19T07:56:22.784Z,98029.40
2023-05-19T08:00:12.019Z,98020.40
2023-05-19T08:03:23.067Z,98019.00
2023-05-19T08:07:12.109Z,98024.80
2023-05-19T08:10:15.648Z,98021.60
2023-05-19T08:13:54.618Z,98014.60
2023-05-19T08:17:26.615Z,98018.80
2023-05-19T08:21:15.704Z,98027.00
2023-05-19T08:25:04.967Z,98020.00
2023-05-19T08:28:36.705Z,98026.20
2023-05-19T08:32:09.294Z,98016.40
2023-05-19T08:35:48.959Z,98015.40
2023-05-19T08:39:00.974Z,98017.80
2023-05-19T08:42:30.009Z,98019.20
2023-05-19T08:46:18.794Z,98022.20
2023-05-19T08:50:08.445Z,98028.80
2023-05-19T08:53:32.456Z,98032.20
2023-05-19T08:57:24.097Z,98040.80
2023-05-19T09:01:13.726Z,98043.00
2023-05-19T09:04:42.132Z,98042.60
2023-05-19T09:08:21.827Z,98031.40
2023-05-19T09:12:10.945Z,98022.20
2023-05-19T09:15:52.793Z,98016.40
2023-05-19T09:19:27.566Z,98021.20
2023-05-19T09:23:22.733Z,98031.40
2023-05-19T09:27:00.469Z,98030.80
2023-05-19T09:30:39.635Z,98023.60
2023-05-19T09:33:48.222Z,98027.60
2023-05-19T09:37:27.704Z,98024.20
2023-05-19T09:41:05.702Z,98015.00
2023-05-19T09:44:28.981Z,98007.80
2023-05-19T09:47:58.021Z,98003.40
2023-05-19T09:51:35.777Z,98005.80
2023-05-19T09:55:08.110Z,97997.80
2023-05-19T09:58:13.969Z,97997.20
2023-05-19T10:01:48.457Z,97991.80
2023-05-19T10:05:00.365Z,97987.80
2023-05-19T10:08:07.366Z,97988.60
2023-05-19T10:11:35.200Z,97979.00
2023-05-19T10:14:17.862Z,97971.80
2023-05-19T10:17:29.533Z,97967.60
2023-05-19T10:21:00.255Z,97956.80
2023-05-19T10:24:21.397Z,97958.00
2023-05-19T10:27:32.057Z,97954.40
2023-05-19T10:30:43.926Z,97947.20
2023-05-19T10:34:12.829Z,97938.60
2023-05-19T10:37:20.808Z,97938.60
2023-05-19T10:40:22.580Z,97936.20
2023-05-19T10:43:59.626Z,97926.20
2023-05-19T10:46:56.760Z,97924.80
2023-05-19T10:49:46.134Z,97916.20
2023-05-19T10:53:00.218Z,97919.40
2023-05-19T10:56:12.760Z,97910.60
2023-05-19T10:59:25.658Z,97909.20
2023-05-19T11:02:58.301Z,97919.40
2023-05-19T11:05:35.359Z,97912.80
2023-05-19T11:08:22.614Z,97909.60
2023-05-19T11:11:23.450Z,97915.80
2023-05-19T11:14:05.961Z,97922.00
2023-05-19T11:17:37.784Z,97906.20
2023-05-19T11:20:30.995Z,97916.00
2023-05-19T11:23:26.033Z,97907.20
2023-05-19T11:25:57.095Z,97907.60
2023-05-19T11:28:34.222Z,97886.40
2023-05-19T11:31:12.502Z,97887.40
2023-05-19T11:33:54.219Z,97889.80
2023-05-19T11:36:28.986Z,97880.60
2023-05-19T11:39:03.792Z,97872.80
2023-05-19T11:41:44.528Z,97882.00
2023-05-19T11:44:55.389Z,97866.60
2023-05-19T11:47:26.707Z,97873.00
2023-05-19T11:49:56.781Z,97858.60
2023-05-19T11:52:27.483Z,97858.00
2023-05-19T11:54:56.972Z,97857.20
2023-05-19T11:57:31.096Z,97861.20
2023-05-19T12:00:02.989Z,97850.20
2023-05-19T12:02:33.593Z,97863.00
2023-05-19T12:05:02.091Z,97854.80
2023-05-19T12:07:33.635Z,97853.00
2023-05-19T12:10:01.768Z,97862.40
2023-05-19T12:12:30.130Z,97853.40
2023-05-19T12:14:58.383Z,97853.00
2023-05-19T12:17:29.789Z,97851.80
2023-05-19T12:19:58.062Z,97858.40
2023-05-19T12:22:29.278Z,97845.00
2023-05-19T12:25:02.122Z,97844.40
2023-05-19T12:27:37.551Z,97840.80
2023-05-19T12:30:09.578Z,97848.60
2023-05-19T12:32:41.425Z,97857.80
2023-05-19T12:35:15.504Z,97847.80
2023-05-19T12:37:49.430Z,97847.80
2023-05-19T12:40:34.283Z,97853.60
2023-05-19T12:43:05.581Z,97859.60
2023-05-19T12:46:09.117Z,97857.60
2023-05-19T12:48:54.977Z,97841.80
2023-05-19T12:51:35.946Z,97848.00
2023-05-19T12:54:32.242Z,97843.20
2023-05-19T12:57:16.266Z,97834.20
2023-05-19T13:00:10.989Z,97840.60
2023-05-19T13:03:04.929Z,97859.00
2023-05-19T13:05:53.515Z,97864.00
2023-05-19T13:08:47.428Z,97865.20
2023-05-19T13:11:36.014Z,97856.40
2023-05-19T13:14:27.250Z,97860.00
2023-05-19T13:17:20.720Z,97848.60
2023-05-19T13:19:52.490Z,97845.00
2023-05-19T13:22:32.621Z,97865.40
2023-05-19T13:25:10.359Z,97868.00
2023-05-19T13:28:03.948Z,97863.80
2023-05-19T13:31:19.230Z,97897.20
2023-05-19T13:34:10.710Z,97907.40
2023-05-19T13:37:39.931Z,97932.20
2023-05-19T13:41:20.570Z,97942.40
2023-05-19T13:44:49.372Z,97947.20
2023-05-19T13:48:38.843Z,97947.60
2023-05-19T13:52:29.059Z,97944.80
2023-05-19T13:55:43.171Z,97943.20
2023-05-19T13:59:25.102Z,97953.20
2023-05-19T14:03:04.418Z,97955.60
2023-05-19T14:06:53.670Z,97957.40
2023-05-19T14:10:42.662Z,97951.60
2023-05-19T14:14:31.109Z,97949.40
2023-05-19T14:18:20.299Z,97953.20
2023-05-19T14:22:09.492Z,97947.60
2023-05-19T14:25:58.536Z,97944.40
2023-05-19T14:29:47.685Z,97938.60
2023-05-19T14:33:37.108Z,97936.60
2023-05-19T14:37:26.240Z,97929.40
2023-05-19T14:41:17.563Z,97932.60
2023-05-19T14:45:06.642Z,97927.40
2023-05-19T14:48:46.950Z,97929.20
2023-05-19T14:51:43.977Z,97930.40
2023-05-19T14:55:26.093Z,97928.40
2023-05-19T14:59:15.123Z,97928.40
2023-05-19T15:03:04.479Z,97925.00
2023-05-19T15:07:05.766Z,97926.40
2023-05-19T15:10:41.086Z,97916.40
2023-05-19T15:14:31.079Z,97909.60
2023-05-19T15:17:54.920Z,97904.00
2023-05-19T15:21:27.288Z,97893.60
2023-05-19T15:24:48.318Z,97893.00
2023-05-19T15:28:20.170Z,97889.80
2023-05-19T15:32:02.680Z,97888.40
2023-05-19T15:35:42.020Z,97891.00
2023-05-19T15:39:11.460Z,97890.00
2023-05-19T15:42:39.457Z,97879.60
2023-05-19T15:46:11.798Z,97876.80
2023-05-19T15:50:01.048Z,97875.20
2023-05-19T15:53:21.182Z,97868.80
2023-05-19T15:56:47.806Z,97875.00
2023-05-19T16:00:20.066Z,97873.80
2023-05-19T16:03:37.509Z,97870.00
2023-05-19T16:07:09.435Z,97880.40
2023-05-19T16:10:57.483Z,97879.40
2023-05-19T16:14:35.343Z,97880.00
2023-05-19T16:18:08.541Z,97880.60
2023-05-19T16:21:39.327Z,97886.00
2023-05-19T16:25:03.349Z,97881.00
2023-05-19T16:28:51.582Z,97891.80
2023-05-19T16:32:28.398Z,97899.20
2023-05-19T16:35:57.278Z,97904.20
2023-05-19T16:39:29.235Z,97905.00
2023-05-19T16:43:18.428Z,97907.00
2023-05-19T16:47:00.190Z,97913.60
2023-05-19T16:50:49.396Z,97914.80
2023-05-19T16:54:38.484Z,97921.00
2023-05-19T16:58:28.908Z,97927.00
2023-05-19T17:02:01.440Z,97930.20
2023-05-19T17:05:51.233Z,97932.80
2023-05-19T17:09:40.652Z,97936.00
2023-05-19T17:13:29.873Z,97939.60
2023-05-19T17:17:18.855Z,97944.40
2023-05-19T17:21:08.110Z,97949.60
2023-05-19T17:24:57.237Z,97956.20
2023-05-19T17:28:39.337Z,97960.60
2023-05-19T17:32:28.652Z,97963.60
2023-05-19T17:36:17.917Z,97967.80
2023-05-19T17:40:10.797Z,97973.60
2023-05-19T17:43:52.522Z,97973.00
2023-05-19T17:47:41.556Z,97974.00
2023-05-19T17:51:30.694Z,97969.20
2023-05-19T17:55:01.496Z,97973.60
2023-05-19T17:58:50.948Z,97975.20
2023-05-19T18:02:40.493Z,97975.60
2023-05-19T18:06:13.194Z,97969.40
2023-05-19T18:09:45.238Z,97976.20
2023-05-19T18:13:34.306Z,97981.40
2023-05-19T18:17:16.808Z,97989.00
2023-05-19T18:21:06.175Z,97995.40
2023-05-19T18:24:55.224Z,98004.20
2023-05-19T18:28:44.612Z,98005.00
2023-05-19T18:32:24.507Z,98006.60
2023-05-19T18:36:13.691Z,98006.00
2023-05-19T18:41:03.494Z,98003.80
2023-05-19T18:44:12.328Z,98005.00
2023-05-19T18:47:44.312Z,98006.00
2023-05-19T18:51:34.844Z,98016.00
2023-05-19T18:55:24.042Z,98012.60
2023-05-19T18:59:12.281Z,98017.00
2023-05-19T19:03:01.675Z,98015.40
2023-05-19T19:06:57.064Z,98016.60
2023-05-19T19:10:46.419Z,98022.40
2023-05-19T19:14:35.407Z,98024.60
2023-05-19T19:18:25.369Z,98029.20
2023-05-19T19:22:13.321Z,98030.40
2023-05-19T19:26:02.525Z,98027.00
2023-05-19T19:29:51.673Z,98024.20
2023-05-19T19:33:36.401Z,98030.80
2023-05-19T19:37:25.959Z,98031.40
2023-05-19T19:40:56.025Z,98035.80
2023-05-19T19:44:45.461Z,98041.00
2023-05-19T19:48:34.536Z,98043.60
2023-05-19T19:52:19.822Z,98049.00
2023-05-19T19:56:01.949Z,98044.80
2023-05-19T19:59:51.216Z,98046.60
2023-05-19T20:03:33.783Z,98052.20
2023-05-19T20:07:23.557Z,98052.40
2023-05-19T20:11:12.665Z,98054.80
2023-05-19T20:15:01.928Z,98048.00
2023-05-19T20:18:31.000Z,98053.60
2023-05-19T20:22:20.062Z,98051.20
2023-05-19T20:26:13.046Z,98047.80
2023-05-19T20:30:05.279Z,98046.40
2023-05-19T20:33:35.998Z,98052.00
2023-05-19T20:37:25.120Z,98056.60
2023-05-19T20:41:14.375Z,98058.60
2023-05-19T20:44:58.518Z,98059.80
2023-05-19T20:48:40.737Z,98061.80
2023-05-19T20:52:23.121Z,98057.20
2023-05-19T20:56:12.341Z,98059.00
2023-05-19T21:00:01.634Z,98053.20
2023-05-19T21:03:40.220Z,98057.20
2023-05-19T21:07:29.485Z,98060.60
2023-05-19T21:11:18.158Z,98061.80
2023-05-19T21:15:07.334Z,98061.00
2023-05-19T21:18:56.561Z,98065.60
2023-05-19T21:22:45.650Z,98066.40
2023-05-19T21:26:35.096Z,98066.40
2023-05-19T21:30:24.556Z,98063.00
2023-05-19T21:34:04.097Z,98066.20
2023-05-19T21:37:53.235Z,98071.00
2023-05-19T21:41:42.612Z,98069.40
2023-05-19T21:45:31.826Z,98070.20
2023-05-19T21:49:20.629Z,98076.20
2023-05-19T21:53:09.989Z,98075.40
2023-05-19T21:56:59.349Z,98079.60
2023-05-19T22:00:48.769Z,98079.00
2023-05-19T22:04:35.968Z,98077.80
2023-05-19T22:08:25.808Z,98075.20
2023-05-19T22:12:19.538Z,98075.20
2023-05-19T22:16:11.547Z,98066.00
2023-05-19T22:19:51.769Z,98067.20
2023-05-19T22:23:41.169Z,98064.40
2023-05-19T22:27:21.875Z,98067.40
2023-05-19T22:31:10.899Z,98070.20
2023-05-19T22:34:59.946Z,98075.40
2023-05-19T22:38:49.073Z,98077.40
2023-05-19T22:42:38.276Z,98076.40
2023-05-19T22:47:03.527Z,98083.20
2023-05-19T22:50:36.901Z,98074.60
2023-05-19T22:54:19.763Z,98078.40
2023-05-19T22:58:09.022Z,98078.00
2023-05-19T23:01:48.664Z,98080.40
2023-05-19T23:05:37.960Z,98074.60
2023-05-19T23:09:27.211Z,98077.40
2023-05-19T23:13:16.265Z,98081.00
2023-05-19T23:17:05.636Z,98087.40
2023-05-19T23:20:54.826Z,98084.80
2023-05-19T23:24:44.237Z,98079.00
2023-05-19T23:28:33.406Z,98073.00
2023-05-19T23:32:22.488Z,98067.20
2023-05-19T23:36:11.750Z,98066.40
2023-05-19T23:39:53.843Z,98068.00
2023-05-19T23:43:42.877Z,98070.80
2023-05-19T23:47:32.036Z,98064.20
2023-05-19T23:51:13.321Z,98067.00
2023-05-19T23:55:02.510Z,98063.60
2023-05-19T23:58:51.632Z,98065.00
